Time;durP1;ratioP1;P1;durP2;ratioP2;P2;SDS_P1;SDS_P2;PMS_P1;PMS_P2;Temp;Humidity;BMP_temperature;BMP_pressure;BME280_temperature;BME280_humidity;BME280_pressure;Samples;Min_cycle;Max_cycle;Signal;HPM_P1;HPM_P2
2022/12/23 00:02:10;;;;;;;33.58;14.30;;;;;;;9.29;100.00;100235.25;5032661;28;20358;-75
2022/12/23 00:04:35;;;;;;;30.25;14.48;;;;;;;9.28;100.00;100233.53;5036750;28;20034;-75
2022/12/23 00:07:01;;;;;;;31.83;14.90;;;;;;;9.30;100.00;100241.53;5048283;28;20037;-75
2022/12/23 00:09:26;;;;;;;34.85;14.73;;;;;;;9.31;100.00;100243.25;5049173;28;20039;-75
2022/12/23 00:17:19;;;;;;;31.42;15.98;;;;;;;9.32;100.00;100254.00;5027906;28;20538;-75
2022/12/23 00:19:44;;;;;;;27.95;15.70;;;;;;;9.32;100.00;100250.41;5029567;28;20033;-75
2022/12/23 00:22:10;;;;;;;37.95;16.52;;;;;;;9.32;100.00;100259.41;5035389;28;20048;-75
2022/12/23 00:24:35;;;;;;;34.15;16.58;;;;;;;9.31;100.00;100246.84;5048145;28;20618;-75
2022/12/23 00:27:00;;;;;;;29.83;16.33;;;;;;;9.32;100.00;100254.00;5048757;28;20516;-75
2022/12/23 00:29:26;;;;;;;35.10;16.08;;;;;;;9.33;100.00;100253.03;5014156;28;20425;-75
2022/12/23 00:31:51;;;;;;;36.67;15.60;;;;;;;9.33;100.00;100249.47;5028000;28;20263;-75
2022/12/23 00:34:16;;;;;;;38.28;15.70;;;;;;;9.32;100.00;100259.41;5036859;28;20080;-75
2022/12/23 00:36:42;;;;;;;34.92;15.70;;;;;;;9.33;100.00;100261.19;5046066;28;20531;-75
2022/12/23 00:44:38;;;;;;;31.67;16.13;;;;;;;9.34;100.00;100270.19;5028977;28;20045;-75
2022/12/23 00:47:04;;;;;;;33.35;17.38;;;;;;;9.35;100.00;100271.91;5032500;28;20491;-75
2022/12/23 00:49:41;;;;;;;40.80;16.08;;;;;;;9.34;100.00;100273.75;5046742;28;20020;-74
2022/12/23 00:52:11;;;;;;;33.65;16.38;;;;;;;9.33;100.00;100271.16;5044124;28;20380;-75
2022/12/23 00:54:37;;;;;;;40.17;17.90;;;;;;;9.34;100.00;100290.03;5027986;28;20514;-75
2022/12/23 00:57:03;;;;;;;36.13;16.80;;;;;;;9.34;100.00;100300.91;5042509;28;20065;-75
2022/12/23 00:59:28;;;;;;;33.72;16.83;;;;;;;9.35;100.00;100299.06;5030343;28;20051;-75
2022/12/23 01:07:22;;;;;;;36.03;16.27;;;;;;;9.35;100.00;100296.34;5028979;28;20033;-74
2022/12/23 01:09:47;;;;;;;45.08;17.05;;;;;;;9.35;100.00;100299.91;5027857;28;20032;-74
2022/12/23 01:12:13;;;;;;;37.47;16.05;;;;;;;9.35;100.00;100297.19;5029053;28;20070;-75
2022/12/23 01:14:39;;;;;;;30.35;15.52;;;;;;;9.35;100.00;100299.06;5027567;28;20048;-75
2022/12/23 01:17:06;;;;;;;30.42;16.33;;;;;;;9.35;100.00;100299.06;5027256;28;20037;-75
2022/12/23 01:19:32;;;;;;;35.22;15.07;;;;;;;9.34;100.00;100309.06;5028987;28;20045;-75
2022/12/23 01:21:57;;;;;;;33.75;14.98;;;;;;;9.35;100.00;100305.34;5028984;28;20038;-75
2022/12/23 01:24:26;;;;;;;33.92;14.68;;;;;;;9.33;100.00;100301.03;5027427;28;20158;-74
2022/12/23 01:26:52;;;;;;;33.78;15.38;;;;;;;9.33;100.00;100307.31;5028413;28;20493;-75
2022/12/23 01:29:17;;;;;;;36.75;16.58;;;;;;;9.32;100.00;100299.28;5031840;28;20029;-74
2022/12/23 01:31:42;;;;;;;38.33;15.10;;;;;;;9.33;100.00;100304.59;5027342;28;20033;-74
2022/12/23 01:34:09;;;;;;;31.90;15.63;;;;;;;9.34;100.00;100308.19;5028576;28;20429;-75
2022/12/23 01:36:34;;;;;;;35.25;14.20;;;;;;;9.32;100.00;100302.00;5041065;28;20552;-75
2022/12/23 01:39:00;;;;;;;36.25;17.25;;;;;;;9.30;100.00;100307.53;5028853;28;20079;-75
2022/12/23 01:44:50;;;;;;;33.53;14.40;;;;;;;9.32;100.00;100310.13;5041424;28;20044;-75
2022/12/23 01:47:21;;;;;;;32.67;15.38;;;;;;;9.33;100.00;100314.59;5042845;28;20035;-75
2022/12/23 01:49:49;;;;;;;34.63;15.82;;;;;;;9.30;100.00;100312.97;5027502;28;20472;-75
2022/12/23 01:52:15;;;;;;;34.08;15.43;;;;;;;9.32;100.00;100315.56;5028564;28;20037;-75
2022/12/23 01:54:41;;;;;;;36.13;15.90;;;;;;;9.30;100.00;100315.69;5029931;28;20044;-74
2022/12/23 01:57:07;;;;;;;40.83;16.52;;;;;;;9.29;100.00;100323.97;5032547;28;20423;-75
2022/12/23 02:05:01;;;;;;;30.83;15.73;;;;;;;9.29;100.00;100334.81;5033911;28;20400;-75
2022/12/23 02:10:10;;;;;;;30.65;14.60;;;;;;;9.28;100.00;100344.81;5051902;28;20047;-75
2022/12/23 02:12:48;;;;;;;30.65;14.65;;;;;;;9.31;100.00;100349.97;5048933;28;20020;-75
2022/12/23 02:18:51;;;;;;;34.28;15.13;;;;;;;9.32;100.00;100345.41;5031794;28;20041;-75
2022/12/23 02:21:22;;;;;;;30.75;15.63;;;;;;;9.30;100.00;100347.41;5031646;28;20104;-75
2022/12/23 02:24:20;;;;;;;35.13;14.25;;;;;;;9.30;100.00;100344.69;5030928;28;20067;-74
2022/12/23 02:27:01;;;;;;;29.08;14.20;;;;;;;9.31;100.00;100346.41;5031762;28;20580;-75
2022/12/23 02:29:45;;;;;;;30.10;13.88;;;;;;;9.30;100.00;100356.41;5031673;28;20041;-75
2022/12/23 02:32:22;;;;;;;31.23;13.73;;;;;;;9.30;100.00;100364.53;5031685;28;20493;-74
2022/12/23 02:34:54;;;;;;;28.17;15.02;;;;;;;9.30;100.00;100366.41;5030774;28;20511;-74
2022/12/23 02:37:28;;;;;;;31.80;14.35;;;;;;;9.30;100.00;100367.25;5031208;28;20042;-75
2022/12/23 02:40:08;;;;;;;25.02;13.27;;;;;;;9.30;100.00;100371.81;5030498;28;20064;-75
2022/12/23 02:42:42;;;;;;;27.45;13.60;;;;;;;9.30;100.00;100383.53;5031347;28;20405;-75
2022/12/23 02:45:40;;;;;;;24.05;12.55;;;;;;;9.28;100.00;100377.38;5031233;28;20042;-75
2022/12/23 02:48:18;;;;;;;29.30;13.32;;;;;;;9.31;100.00;100403.41;5031254;28;20045;-74
2022/12/23 02:50:45;;;;;;;28.20;14.45;;;;;;;9.30;100.00;100407.97;5031231;28;20037;-75
2022/12/23 02:53:18;;;;;;;27.48;14.35;;;;;;;9.29;100.00;100403.53;5031467;28;20108;-74
2022/12/23 02:55:47;;;;;;;23.52;13.63;;;;;;;9.29;100.00;100408.97;5031197;28;20041;-75
2022/12/23 02:58:15;;;;;;;21.98;11.93;;;;;;;9.28;100.00;100406.34;5031196;28;20155;-74
2022/12/23 03:00:42;;;;;;;20.35;11.05;;;;;;;9.30;100.00;100417.97;5029555;28;20132;-75
2022/12/23 03:03:08;;;;;;;24.58;12.65;;;;;;;9.26;100.00;100406.47;5031120;28;20045;-75
2022/12/23 03:05:43;;;;;;;22.70;12.60;;;;;;;9.26;100.00;100406.47;5035755;28;20037;-75
2022/12/23 03:08:16;;;;;;;28.67;12.77;;;;;;;9.29;100.00;100416.25;5051051;28;20125;-75
2022/12/23 03:10:42;;;;;;;24.90;12.40;;;;;;;9.28;100.00;100420.81;5051028;28;20037;-75
2022/12/23 03:13:30;;;;;;;22.65;11.93;;;;;;;9.28;100.00;100422.63;5026849;28;20518;-76
2022/12/23 03:16:07;;;;;;;23.67;12.45;;;;;;;9.29;100.00;100419.81;5029402;28;20475;-76
2022/12/23 03:18:39;;;;;;;24.58;12.88;;;;;;;9.28;100.00;100415.38;5029676;28;20037;-76
2022/12/23 03:21:07;;;;;;;24.45;11.88;;;;;;;9.26;100.00;100411.03;5029285;28;20041;-76
2022/12/23 03:23:41;;;;;;;25.23;12.05;;;;;;;9.27;100.00;100410.91;5029419;28;20543;-76
2022/12/23 03:26:10;;;;;;;23.48;12.45;;;;;;;9.27;100.00;100412.75;5039184;28;20069;-75
2022/12/23 03:28:59;;;;;;;22.77;12.27;;;;;;;9.28;100.00;100409.97;5040784;28;20033;-75
2022/12/23 03:31:28;;;;;;;24.10;12.80;;;;;;;9.27;100.00;100404.63;5012704;28;20084;-75
2022/12/23 03:34:07;;;;;;;32.97;13.80;;;;;;;9.22;100.00;100391.38;5042229;28;20125;-75
2022/12/23 03:36:41;;;;;;;26.50;13.20;;;;;;;9.25;100.00;100399.31;5041668;28;20039;-76
2022/12/23 03:39:11;;;;;;;30.88;13.82;;;;;;;9.26;100.00;100402.88;5028837;28;20051;-75
2022/12/23 03:41:43;;;;;;;27.40;12.70;;;;;;;9.24;100.00;100404.88;5030608;28;20041;-75
2022/12/23 03:44:14;;;;;;;34.47;12.85;;;;;;;9.25;100.00;100409.31;5043640;28;20115;-75
2022/12/23 03:46:46;;;;;;;31.83;14.30;;;;;;;9.24;100.00;100402.16;5049720;28;20766;-75
2022/12/23 03:49:17;;;;;;;27.70;13.88;;;;;;;9.24;100.00;100402.16;5037136;28;20432;-75
2022/12/23 03:51:58;;;;;;;29.70;14.30;;;;;;;9.22;100.00;100402.25;5050216;28;20068;-75
2022/12/23 03:54:32;;;;;;;27.13;12.15;;;;;;;9.24;100.00;100407.59;5050161;28;20120;-75
2022/12/23 03:57:04;;;;;;;25.90;12.38;;;;;;;9.23;100.00;100408.53;5040715;28;20125;-75
2022/12/23 03:59:33;;;;;;;28.38;12.57;;;;;;;9.23;100.00;100414.81;5044903;28;20112;-75
2022/12/23 04:02:07;;;;;;;27.15;12.98;;;;;;;9.23;100.00;100419.41;5029320;28;20040;-75
2022/12/23 04:04:49;;;;;;;29.75;13.38;;;;;;;9.23;100.00;100412.13;5037589;28;20387;-75
2022/12/23 04:07:21;;;;;;;25.88;12.93;;;;;;;9.22;100.00;100421.25;5044534;28;20041;-75
2022/12/23 04:09:47;;;;;;;34.10;14.00;;;;;;;9.21;100.00;100416.81;5029889;28;20084;-75
2022/12/23 04:12:14;;;;;;;30.50;14.70;;;;;;;9.21;100.00;100433.09;5029953;28;20025;-75
2022/12/23 04:14:46;;;;;;;34.10;14.75;;;;;;;9.22;100.00;100428.53;5029470;28;20061;-76
2022/12/23 04:17:11;;;;;;;32.55;13.13;;;;;;;9.22;100.00;100428.53;5029700;28;20100;-75
2022/12/23 04:19:37;;;;;;;29.02;14.25;;;;;;;9.21;100.00;100424.94;5029654;28;20069;-75
2022/12/23 04:22:02;;;;;;;37.60;14.90;;;;;;;9.20;100.00;100429.50;5060754;28;20041;-75
2022/12/23 04:24:27;;;;;;;34.72;14.75;;;;;;;9.20;100.00;100434.94;5029716;28;20029;-75
2022/12/23 04:26:53;;;;;;;33.40;14.07;;;;;;;9.16;100.00;100429.84;5029422;28;20036;-75
2022/12/23 04:29:18;;;;;;;33.05;15.90;;;;;;;9.19;100.00;100449.50;5046879;28;20407;-75
2022/12/23 04:31:43;;;;;;;34.58;15.65;;;;;;;9.19;100.00;100451.34;5081055;28;20033;-75
2022/12/23 04:34:09;;;;;;;34.40;14.20;;;;;;;9.16;100.00;100451.56;5029530;28;20053;-75
2022/12/23 04:36:34;;;;;;;26.85;13.98;;;;;;;9.17;100.00;100459.56;5073785;28;20087;-75
2022/12/23 04:38:59;;;;;;;34.17;14.43;;;;;;;9.15;100.00;100458.84;5011906;28;20496;-75
2022/12/23 04:41:25;;;;;;;38.30;14.68;;;;;;;9.14;100.00;100459.81;5011503;28;20470;-75
2022/12/23 04:43:50;;;;;;;32.45;14.55;;;;;;;9.14;100.00;100459.81;5038590;28;20476;-75
2022/12/23 04:46:15;;;;;;;30.80;14.68;;;;;;;9.16;100.00;100448.84;5049067;28;20029;-75
2022/12/23 04:48:41;;;;;;;30.92;14.85;;;;;;;9.15;100.00;100450.69;5031269;28;20041;-75
2022/12/23 04:51:06;;;;;;;37.22;15.18;;;;;;;9.14;100.00;100443.53;5028987;28;20033;-75
2022/12/23 04:53:34;;;;;;;37.30;14.18;;;;;;;9.14;100.00;100435.41;5029533;28;20030;-75
2022/12/23 04:56:00;;;;;;;34.35;15.00;;;;;;;9.13;100.00;100438.19;5041737;28;20032;-75
2022/12/23 04:58:25;;;;;;;33.00;16.67;;;;;;;9.12;100.00;100431.91;5040960;28;20029;-75
2022/12/23 05:01:05;;;;;;;35.35;16.05;;;;;;;9.12;100.00;100423.75;5028897;28;20034;-75
2022/12/23 05:03:31;;;;;;;35.65;15.93;;;;;;;9.09;100.00;100426.72;5040985;28;20579;-75
2022/12/23 05:05:56;;;;;;;39.33;16.30;;;;;;;9.06;100.00;100416.09;5038088;28;20032;-75
2022/12/23 05:08:21;;;;;;;42.65;17.60;;;;;;;9.07;100.00;100420.53;5048855;28;20115;-75
2022/12/23 05:10:47;;;;;;;37.25;16.67;;;;;;;9.06;100.00;100420.66;5047483;28;20040;-75
2022/12/23 05:13:12;;;;;;;31.95;14.70;;;;;;;9.07;100.00;100425.09;5037001;28;20029;-75
2022/12/23 05:15:38;;;;;;;30.70;14.50;;;;;;;9.06;100.00;100432.38;5028564;28;20049;-75
2022/12/23 05:18:03;;;;;;;34.35;15.52;;;;;;;9.07;100.00;100438.66;5027450;28;20049;-75
2022/12/23 05:20:28;;;;;;;30.50;14.20;;;;;;;9.04;100.00;100439.72;5029002;28;20037;-75
2022/12/23 05:22:55;;;;;;;33.70;15.55;;;;;;;9.04;100.00;100439.72;5027588;28;20428;-75
2022/12/23 05:25:20;;;;;;;28.92;14.30;;;;;;;9.04;100.00;100457.88;5028785;28;20033;-75
2022/12/23 05:27:46;;;;;;;31.45;14.60;;;;;;;9.03;100.00;100458.84;5028767;28;20041;-75
2022/12/23 05:30:11;;;;;;;29.88;14.15;;;;;;;9.01;100.00;100469.81;5063709;28;20041;-75
2022/12/23 05:32:38;;;;;;;32.67;14.40;;;;;;;9.01;100.00;100471.69;5032650;28;20445;-75
2022/12/23 05:35:04;;;;;;;33.25;14.93;;;;;;;9.01;100.00;100477.97;5044574;28;20033;-75
2022/12/23 05:37:30;;;;;;;27.92;12.65;;;;;;;9.02;100.00;100473.41;5043521;28;20025;-75
2022/12/23 05:39:55;;;;;;;31.67;13.50;;;;;;;9.02;100.00;100479.69;5031314;28;20129;-75
2022/12/23 05:42:20;;;;;;;33.33;13.65;;;;;;;9.02;100.00;100486.97;5032504;28;20045;-75
2022/12/23 05:44:46;;;;;;;30.60;13.85;;;;;;;9.03;100.00;100494.13;5031207;28;20076;-75
2022/12/23 05:47:12;;;;;;;28.40;13.98;;;;;;;9.02;100.00;100489.69;5034860;28;20044;-75
2022/12/23 05:49:37;;;;;;;30.02;13.73;;;;;;;9.02;100.00;100492.41;5046581;28;20022;-75
2022/12/23 05:52:03;;;;;;;31.05;13.90;;;;;;;9.02;100.00;100478.81;5032568;28;20033;-75
2022/12/23 05:54:28;;;;;;;33.80;13.93;;;;;;;9.01;100.00;100474.38;5045322;28;20025;-76
2022/12/23 05:56:53;;;;;;;30.45;14.57;;;;;;;9.03;100.00;100476.00;5034630;28;20500;-75
2022/12/23 05:59:19;;;;;;;32.63;14.93;;;;;;;9.02;100.00;100474.25;5046384;28;20103;-75
2022/12/23 06:01:44;;;;;;;26.63;13.60;;;;;;;8.99;100.00;100460.03;5031598;28;20029;-75
2022/12/23 06:04:09;;;;;;;33.45;14.50;;;;;;;9.03;100.00;100461.56;5038231;28;20143;-76
2022/12/23 06:06:35;;;;;;;37.60;15.20;;;;;;;9.03;100.00;100462.44;5050739;28;20033;-75
2022/12/23 06:09:00;;;;;;;33.92;13.85;;;;;;;9.02;100.00;100446.25;5050924;28;20420;-75
2022/12/23 06:11:26;;;;;;;33.63;14.82;;;;;;;9.02;100.00;100447.13;5050836;28;20404;-75
2022/12/23 06:13:51;;;;;;;32.08;13.57;;;;;;;9.03;100.00;100445.28;5035842;28;20323;-76
2022/12/23 06:16:17;;;;;;;33.38;14.93;;;;;;;9.03;100.00;100446.16;5031605;28;20054;-76
2022/12/23 06:18:42;;;;;;;31.98;13.50;;;;;;;9.00;100.00;100446.38;5031372;28;20041;-75
2022/12/23 06:21:08;;;;;;;35.45;15.30;;;;;;;9.00;100.00;100442.78;5030667;28;20026;-75
2022/12/23 06:23:33;;;;;;;35.33;14.75;;;;;;;9.00;100.00;100434.63;5030662;28;20041;-75
2022/12/23 06:26:00;;;;;;;41.92;14.88;;;;;;;9.01;100.00;100439.13;5032199;28;20037;-76
2022/12/23 06:28:26;;;;;;;33.05;15.60;;;;;;;9.00;100.00;100443.69;5031602;28;20033;-75
2022/12/23 06:30:55;;;;;;;33.45;14.63;;;;;;;8.99;100.00;100441.06;5031625;28;20265;-75
2022/12/23 06:33:21;;;;;;;40.95;15.52;;;;;;;8.98;100.00;100439.31;5043101;28;20032;-75
2022/12/23 06:35:47;;;;;;;32.20;15.00;;;;;;;8.96;100.00;100438.59;5031481;28;20575;-75
2022/12/23 06:38:12;;;;;;;34.95;15.00;;;;;;;8.94;100.00;100444.09;5033782;28;20065;-75
2022/12/23 06:40:37;;;;;;;30.92;14.63;;;;;;;8.97;100.00;100452.03;5031737;28;20091;-75
2022/12/23 06:43:03;;;;;;;37.47;15.82;;;;;;;8.95;100.00;100451.25;5031600;28;20504;-75
2022/12/23 06:45:28;;;;;;;30.77;14.93;;;;;;;8.93;100.00;100456.78;5029014;28;20032;-75
2022/12/23 06:47:53;;;;;;;34.53;14.80;;;;;;;8.94;100.00;100458.53;5030564;28;20489;-75
2022/12/23 06:50:19;;;;;;;36.75;16.77;;;;;;;8.96;100.00;100466.56;5041954;28;20044;-75
2022/12/23 06:52:45;;;;;;;44.13;16.35;;;;;;;8.94;100.00;100468.50;5033618;28;20062;-75
2022/12/23 06:55:10;;;;;;;37.22;16.40;;;;;;;8.93;100.00;100472.22;5031482;28;20056;-75
2022/12/23 06:57:36;;;;;;;36.72;17.13;;;;;;;8.94;100.00;100480.22;5030867;28;20069;-75
2022/12/23 07:00:03;;;;;;;44.90;18.55;;;;;;;8.93;100.00;100494.78;5050012;28;20605;-75
2022/12/23 07:02:29;;;;;;;39.95;17.05;;;;;;;8.93;100.00;100500.22;5046895;28;20029;-75
2022/12/23 07:04:54;;;;;;;44.45;18.17;;;;;;;8.93;100.00;100515.63;5047001;28;20044;-75
2022/12/23 07:07:19;;;;;;;38.83;18.08;;;;;;;8.95;100.00;100527.22;5047662;28;20472;-76
2022/12/23 07:09:45;;;;;;;44.05;18.10;;;;;;;8.94;100.00;100534.50;5049745;28;20032;-76
2022/12/23 07:12:10;;;;;;;45.42;18.35;;;;;;;8.93;100.00;100530.03;5082132;28;20021;-75
2022/12/23 07:14:35;;;;;;;43.63;17.92;;;;;;;8.91;100.00;100523.88;5047996;28;20036;-76
2022/12/23 07:17:01;;;;;;;43.60;19.42;;;;;;;8.91;100.00;100504.03;5047502;28;20056;-76
2022/12/23 07:19:26;;;;;;;39.15;17.55;;;;;;;8.93;100.00;100493.91;5047124;28;20559;-76
2022/12/23 07:21:52;;;;;;;49.47;19.42;;;;;;;8.92;100.00;100487.63;5049685;28;20048;-76
2022/12/23 07:24:17;;;;;;;46.95;19.00;;;;;;;8.92;100.00;100494.91;5047512;28;20110;-76
2022/12/23 07:26:42;;;;;;;51.22;20.67;;;;;;;8.91;100.00;100493.16;5049351;28;20438;-76
2022/12/23 07:29:08;;;;;;;46.80;20.48;;;;;;;8.89;100.00;100486.97;5045176;28;20480;-76
2022/12/23 07:31:33;;;;;;;50.63;21.67;;;;;;;8.88;100.00;100496.09;5048231;28;20100;-76
2022/12/23 07:33:58;;;;;;;59.03;23.52;;;;;;;8.89;100.00;100495.97;5043054;28;20124;-76
2022/12/23 07:36:24;;;;;;;57.47;21.35;;;;;;;8.90;100.00;100494.13;5049380;28;20589;-76
2022/12/23 07:38:52;;;;;;;56.85;22.50;;;;;;;8.89;100.00;100489.69;5049994;28;20075;-76
2022/12/23 07:41:18;;;;;;;57.55;24.58;;;;;;;8.88;100.00;100482.53;5049626;28;20025;-76
2022/12/23 07:43:44;;;;;;;58.28;24.08;;;;;;;8.89;100.00;100490.53;5046762;28;20119;-76
2022/12/23 07:46:09;;;;;;;62.35;24.30;;;;;;;8.89;100.00;100484.25;5049446;28;20484;-76
2022/12/23 07:48:35;;;;;;;60.08;23.35;;;;;;;8.89;100.00;100487.84;5044451;28;20029;-76
2022/12/23 07:51:03;;;;;;;59.40;23.40;;;;;;;8.89;100.00;100489.69;5048300;28;20468;-76
2022/12/23 07:53:29;;;;;;;56.47;21.58;;;;;;;8.89;100.00;100495.97;5045279;28;20091;-76
2022/12/23 07:55:55;;;;;;;55.83;23.45;;;;;;;8.88;100.00;100487.94;5042538;28;20371;-76
2022/12/23 07:58:20;;;;;;;55.80;22.90;;;;;;;8.87;100.00;100476.25;5035116;28;20032;-76
2022/12/23 08:00:45;;;;;;;57.30;22.17;;;;;;;8.87;100.00;100489.81;5041805;28;20033;-76
2022/12/23 08:03:11;;;;;;;57.38;20.95;;;;;;;8.87;100.00;100488.94;5029804;28;20034;-76
2022/12/23 08:05:36;;;;;;;58.05;23.58;;;;;;;8.86;100.00;100485.34;5045625;28;20041;-76
2022/12/23 08:08:02;;;;;;;61.90;24.15;;;;;;;8.85;100.00;100486.31;5048769;28;20021;-77
2022/12/23 08:10:28;;;;;;;59.55;23.10;;;;;;;8.85;100.00;100474.59;5050160;28;20111;-76
2022/12/23 08:12:53;;;;;;;62.55;23.27;;;;;;;8.86;100.00;100479.03;5044401;28;20543;-76
2022/12/23 08:15:19;;;;;;;56.10;21.55;;;;;;;8.85;100.00;100475.47;5029369;28;20033;-76
2022/12/23 08:17:44;;;;;;;61.40;23.60;;;;;;;8.84;100.00;100468.31;5011556;28;20430;-76
2022/12/23 08:20:10;;;;;;;61.85;20.50;;;;;;;8.87;100.00;100461.81;5041804;28;20120;-76
2022/12/23 08:22:35;;;;;;;50.28;21.15;;;;;;;8.86;100.00;100477.22;5044971;28;20072;-75
2022/12/23 08:25:00;;;;;;;57.88;22.15;;;;;;;8.84;100.00;100471.03;5032316;28;20068;-76
2022/12/23 08:27:26;;;;;;;51.28;20.92;;;;;;;8.86;100.00;100485.34;5010944;28;20083;-76
2022/12/23 08:29:52;;;;;;;51.58;19.95;;;;;;;8.85;100.00;100480.88;5029212;28;20040;-76
2022/12/23 08:32:17;;;;;;;46.75;21.63;;;;;;;8.84;100.00;100459.31;5028834;28;20488;-76
2022/12/23 08:34:42;;;;;;;57.35;21.77;;;;;;;8.81;100.00;100464.94;5029295;28;20477;-76
2022/12/23 08:37:08;;;;;;;54.92;20.98;;;;;;;8.85;100.00;100470.03;5041591;28;20354;-76
2022/12/23 08:39:33;;;;;;;49.55;19.63;;;;;;;8.83;100.00;100463.88;5028542;28;20382;-76
2022/12/23 08:41:58;;;;;;;51.42;19.48;;;;;;;8.85;100.00;100466.47;5029667;28;20224;-76
2022/12/23 08:44:26;;;;;;;45.15;19.23;;;;;;;8.84;100.00;100462.03;5027838;28;20048;-76
2022/12/23 08:46:54;;;;;;;56.05;19.60;;;;;;;8.84;100.00;100465.59;5029195;28;20106;-76
2022/12/23 08:49:20;;;;;;;49.65;19.70;;;;;;;8.81;100.00;100454.97;5031486;28;20045;-77
2022/12/23 08:51:46;;;;;;;48.58;19.05;;;;;;;8.83;100.00;100449.44;5027699;28;20622;-76
2022/12/23 08:54:12;;;;;;;48.33;18.10;;;;;;;8.83;100.00;100444.88;5029195;28;20030;-76
2022/12/23 08:56:41;;;;;;;47.80;15.98;;;;;;;8.84;100.00;100445.75;5027881;28;20099;-76
2022/12/23 08:59:11;;;;;;;46.22;18.42;;;;;;;8.82;100.00;100439.56;5028399;28;20099;-76
2022/12/23 09:01:37;;;;;;;37.67;14.68;;;;;;;8.83;100.00;100442.16;5028420;28;20493;-76
2022/12/23 09:04:06;;;;;;;42.00;16.02;;;;;;;8.85;100.00;100439.34;5027210;28;20036;-76
2022/12/23 09:06:37;;;;;;;38.15;15.85;;;;;;;8.84;100.00;100440.31;5041510;28;20401;-76
2022/12/23 09:09:04;;;;;;;33.92;14.60;;;;;;;8.83;100.00;100434.03;5033927;28;20044;-76
2022/12/23 09:11:30;;;;;;;37.83;15.60;;;;;;;8.84;100.00;100421.34;5028900;28;20666;-76
2022/12/23 09:13:59;;;;;;;38.65;14.77;;;;;;;8.83;100.00;100420.47;5029037;28;20034;-76
2022/12/23 09:16:24;;;;;;;38.05;15.13;;;;;;;8.84;100.00;100419.47;5028635;28;20041;-76
2022/12/23 09:18:49;;;;;;;43.58;15.82;;;;;;;8.82;100.00;100410.59;5040725;28;20496;-76
2022/12/23 09:21:18;;;;;;;34.88;14.50;;;;;;;8.84;100.00;100405.06;5028606;28;20109;-76
2022/12/23 09:23:43;;;;;;;36.58;12.60;;;;;;;8.84;100.00;100397.78;5028745;28;20021;-76
2022/12/23 09:26:09;;;;;;;40.63;14.55;;;;;;;8.84;100.00;100405.06;5030900;28;20455;-76
2022/12/23 09:28:35;;;;;;;43.13;14.32;;;;;;;8.83;100.00;100393.34;5040178;28;20096;-76
2022/12/23 09:31:08;;;;;;;34.55;13.05;;;;;;;8.85;100.00;100395.94;5030634;28;20072;-77
2022/12/23 09:33:33;;;;;;;30.13;13.50;;;;;;;8.84;100.00;100397.78;5027962;28;20117;-76
2022/12/23 09:36:00;;;;;;;33.20;12.02;;;;;;;8.83;100.00;100382.50;5048648;28;20480;-77
2022/12/23 09:38:25;;;;;;;35.80;13.32;;;;;;;8.84;100.00;100392.34;5048511;28;20292;-77
2022/12/23 09:40:51;;;;;;;34.42;13.15;;;;;;;8.85;100.00;100393.22;5034068;28;20037;-77
2022/12/23 09:43:35;;;;;;;35.47;11.82;;;;;;;8.87;100.00;100386.72;5027987;28;20052;-77
2022/12/23 09:46:21;;;;;;;30.83;12.68;;;;;;;8.89;100.00;100383.88;5027262;28;20539;-76
2022/12/23 09:48:59;;;;;;;27.75;12.32;;;;;;;8.90;100.00;100380.19;5028411;28;20052;-77
2022/12/23 09:51:26;;;;;;;29.65;11.43;;;;;;;8.87;100.00;100359.59;5027255;28;20033;-76
2022/12/23 09:54:07;;;;;;;26.95;12.95;;;;;;;8.91;100.00;100371.09;5028540;28;20041;-77
2022/12/23 09:56:51;;;;;;;29.52;12.25;;;;;;;8.92;100.00;100372.81;5028697;28;20120;-76
2022/12/23 10:00:06;;;;;;;24.88;10.82;;;;;;;8.94;100.00;100368.13;5027884;28;20087;-77
2022/12/23 10:02:50;;;;;;;28.63;11.45;;;;;;;8.93;100.00;100374.53;5041203;28;20048;-75
2022/12/23 10:05:26;;;;;;;32.60;11.45;;;;;;;8.96;100.00;100377.03;5030051;28;20037;-77
2022/12/23 10:08:08;;;;;;;38.20;13.98;;;;;;;9.00;100.00;100377.66;5048333;28;20079;-77
2022/12/23 10:10:41;;;;;;;23.90;10.75;;;;;;;9.02;100.00;100378.44;5047200;28;20065;-77
2022/12/23 10:13:18;;;;;;;28.42;10.40;;;;;;;8.99;100.00;100357.81;5043782;28;20496;-77
2022/12/23 10:15:47;;;;;;;26.58;10.40;;;;;;;9.00;100.00;100346.00;5029291;28;20083;-77
2022/12/23 10:18:22;;;;;;;21.20;10.20;;;;;;;8.99;100.00;100341.53;5030834;28;20099;-76
2022/12/23 10:20:58;;;;;;;27.33;10.27;;;;;;;9.00;100.00;100345.09;5029247;28;20515;-77
2022/12/23 10:23:47;;;;;;;24.35;9.48;;;;;;;9.00;100.00;100336.97;5031811;28;20044;-77
2022/12/23 10:26:28;;;;;;;26.40;10.35;;;;;;;9.01;100.00;100328.72;5031168;28;20481;-77
2022/12/23 10:29:04;;;;;;;29.38;10.98;;;;;;;9.02;100.00;100324.16;5031987;28;20469;-77
2022/12/23 10:31:49;;;;;;;23.42;10.57;;;;;;;9.03;100.00;100321.34;5031997;28;20034;-77
2022/12/23 10:34:40;;;;;;;26.38;10.82;;;;;;;9.09;100.00;100320.00;5030601;28;20676;-76
2022/12/23 10:37:14;;;;;;;31.45;10.73;;;;;;;9.10;100.00;100310.91;5017850;28;20052;-77
2022/12/23 10:39:56;;;;;;;27.20;10.20;;;;;;;9.12;100.00;100307.06;5029448;28;20051;-77
2022/12/23 10:42:40;;;;;;;28.70;10.63;;;;;;;9.18;100.00;100303.91;5031320;28;20141;-77
2022/12/23 10:45:34;;;;;;;24.02;10.43;;;;;;;9.20;100.00;100301.94;5033215;28;20493;-77
2022/12/23 10:48:12;;;;;;;23.90;10.43;;;;;;;9.26;100.00;100302.47;5031312;28;20053;-77
2022/12/23 10:50:44;;;;;;;21.95;9.70;;;;;;;9.29;100.00;100299.53;5030605;28;20044;-77
2022/12/23 10:53:19;;;;;;;20.63;9.32;;;;;;;9.31;100.00;100286.69;5030293;28;20474;-77
2022/12/23 10:55:46;;;;;;;24.50;9.98;;;;;;;9.32;100.00;100278.41;5028957;28;20041;-77
2022/12/23 10:58:15;;;;;;;24.60;9.27;;;;;;;9.32;100.00;100277.56;5029250;28;20029;-78
2022/12/23 11:00:45;;;;;;;24.20;9.30;;;;;;;9.31;100.00;100270.41;5030539;28;20065;-77
2022/12/23 11:03:34;;;;;;;22.33;8.98;;;;;;;9.29;100.00;100256.09;5030664;28;20044;-77
2022/12/23 11:06:00;;;;;;;21.75;7.90;;;;;;;9.29;100.00;100251.53;5048530;28;20622;-77
2022/12/23 11:08:29;;;;;;;19.50;7.68;;;;;;;9.27;100.00;100247.19;5028978;28;20029;-77
2022/12/23 11:10:54;;;;;;;17.17;9.45;;;;;;;9.25;100.00;100239.19;5030941;28;20473;-77
2022/12/23 11:13:33;;;;;;;17.92;9.15;;;;;;;9.27;100.00;100241.75;5035729;28;20070;-77
2022/12/23 11:16:28;;;;;;;18.67;8.50;;;;;;;9.25;100.00;100232.88;5050880;28;20033;-77
2022/12/23 11:19:05;;;;;;;14.38;8.45;;;;;;;9.26;100.00;100240.91;5074720;28;20061;-77
2022/12/23 11:21:32;;;;;;;16.27;7.55;;;;;;;9.22;100.00;100236.69;5031140;28;20547;-77
2022/12/23 11:24:14;;;;;;;15.35;7.70;;;;;;;9.22;100.00;100238.53;5031135;28;20056;-77
2022/12/23 11:26:40;;;;;;;16.73;9.25;;;;;;;9.17;100.00;100228.03;5037247;28;20502;-77
2022/12/23 11:29:11;;;;;;;17.52;8.35;;;;;;;9.17;100.00;100223.47;5036715;28;20033;-78
2022/12/23 11:31:37;;;;;;;19.25;8.38;;;;;;;9.10;100.00;100210.50;5030609;28;20132;-78
2022/12/23 11:34:18;;;;;;;16.58;8.45;;;;;;;9.11;100.00;100206.81;5028655;28;20112;-77
2022/12/23 11:36:50;;;;;;;17.17;7.53;;;;;;;9.05;100.00;100205.44;5041684;28;20120;-77
2022/12/23 11:39:25;;;;;;;16.02;8.45;;;;;;;9.04;100.00;100203.69;5030530;28;20048;-77
2022/12/23 11:41:54;;;;;;;18.17;6.63;;;;;;;9.00;100.00;100196.78;5029148;28;20512;-76
2022/12/23 11:44:27;;;;;;;15.57;8.43;;;;;;;8.98;100.00;100189.72;5043658;28;20040;-76
2022/12/23 11:46:53;;;;;;;16.00;7.28;;;;;;;8.96;100.00;100179.00;5050098;28;20117;-76
2022/12/23 11:49:30;;;;;;;13.75;7.43;;;;;;;8.96;100.00;100172.72;5027922;28;20124;-76
2022/12/23 11:52:00;;;;;;;21.17;7.45;;;;;;;8.94;100.00;100164.66;5038898;28;20045;-76